createdAt,value
2023-02-22T00:01:08.414Z,4.70
2023-02-22T00:03:36.840Z,4.60
2023-02-22T00:06:07.083Z,4.70
2023-02-22T00:08:37.653Z,4.50
2023-02-22T00:11:09.707Z,4.60
2023-02-22T00:13:39.613Z,4.70
2023-02-22T00:16:08.554Z,4.70
2023-02-22T00:18:37.831Z,4.70
2023-02-22T00:21:10.695Z,4.80
2023-02-22T00:23:43.436Z,4.80
2023-02-22T00:26:13.541Z,4.60
2023-02-22T00:28:42.571Z,4.50
2023-02-22T00:31:10.993Z,4.50
2023-02-22T00:33:40.991Z,4.50
2023-02-22T00:36:11.480Z,4.50
2023-02-22T00:38:41.512Z,4.40
2023-02-22T00:41:10.128Z,4.30
2023-02-22T00:43:39.801Z,4.40
2023-02-22T00:46:08.053Z,4.40
2023-02-22T00:48:36.374Z,4.60
2023-02-22T00:51:04.895Z,4.50
2023-02-22T00:53:33.146Z,4.40
2023-02-22T00:56:01.700Z,4.50
2023-02-22T00:58:30.027Z,4.40
2023-02-22T01:21:45.388Z,4.60
2023-02-22T01:24:16.240Z,4.70
2023-02-22T01:26:45.492Z,4.90
2023-02-22T01:29:22.215Z,4.80
2023-02-22T01:31:55.089Z,4.80
2023-02-22T01:34:24.078Z,4.80
2023-02-22T01:36:53.689Z,4.70
2023-02-22T01:39:21.802Z,4.70
2023-02-22T01:41:50.326Z,4.70
2023-02-22T01:44:27.666Z,4.70
2023-02-22T01:46:56.125Z,4.70
2023-02-22T01:49:26.606Z,4.60
2023-02-22T01:52:00.681Z,4.60
2023-02-22T01:54:32.510Z,4.80
2023-02-22T01:57:06.241Z,4.70
2023-02-22T01:59:37.682Z,4.50
2023-02-22T02:02:06.543Z,4.50
2023-02-22T02:04:36.570Z,4.50
2023-02-22T02:07:09.105Z,4.60
2023-02-22T02:09:41.169Z,4.50
2023-02-22T02:12:12.279Z,4.50
2023-02-22T02:14:42.768Z,4.40
2023-02-22T02:17:14.049Z,4.40
2023-02-22T02:19:49.519Z,4.20
2023-02-22T02:22:45.926Z,4.10
2023-02-22T02:25:48.821Z,4.10
2023-02-22T02:28:45.703Z,3.90
2023-02-22T02:31:51.308Z,3.90
2023-02-22T02:34:28.943Z,3.80
2023-02-22T02:37:09.386Z,3.70
2023-02-22T02:39:44.925Z,3.60
2023-02-22T02:42:17.943Z,3.50
2023-02-22T02:44:50.723Z,3.50
2023-02-22T02:47:23.531Z,3.50
2023-02-22T02:49:57.151Z,3.40
2023-02-22T02:52:26.385Z,3.70
2023-02-22T02:54:56.611Z,3.60
2023-02-22T02:57:24.959Z,3.60
2023-02-22T02:59:53.392Z,3.50
2023-02-22T03:02:45.913Z,3.40
2023-02-22T03:05:30.355Z,3.40
2023-02-22T03:08:07.696Z,3.30
2023-02-22T03:10:50.599Z,3.20
2023-02-22T03:13:28.949Z,3.20
2023-02-22T03:16:05.322Z,3.20
2023-02-22T03:18:41.837Z,3.20
2023-02-22T03:21:19.176Z,3.20
2023-02-22T03:23:52.403Z,3.20
2023-02-22T03:26:26.057Z,3.30
2023-02-22T03:28:57.147Z,3.30
2023-02-22T03:31:30.192Z,3.40
2023-02-22T03:34:03.822Z,3.50
2023-02-22T03:36:34.568Z,3.50
2023-02-22T03:39:05.325Z,3.50
2023-02-22T03:41:38.903Z,3.50
2023-02-22T03:44:09.696Z,3.60
2023-02-22T03:46:41.978Z,3.60
2023-02-22T03:49:14.982Z,3.60
2023-02-22T03:51:45.161Z,3.70
2023-02-22T03:54:16.515Z,3.70
2023-02-22T03:56:50.725Z,3.90
2023-02-22T03:59:19.622Z,3.90
2023-02-22T04:01:47.832Z,4.00
2023-02-22T04:04:16.492Z,4.00
2023-02-22T04:06:48.018Z,3.90
2023-02-22T04:09:16.558Z,3.90
2023-02-22T04:11:45.487Z,3.90
2023-02-22T04:14:14.193Z,3.90
2023-02-22T04:16:42.461Z,3.90
2023-02-22T04:19:10.920Z,3.90
2023-02-22T04:21:39.257Z,4.00
2023-02-22T04:24:09.095Z,4.10
2023-02-22T04:26:37.644Z,4.20
2023-02-22T04:29:06.266Z,4.20
2023-02-22T04:31:34.701Z,4.20
2023-02-22T04:34:03.632Z,4.30
2023-02-22T04:36:32.885Z,4.20
2023-02-22T04:39:01.417Z,4.30
2023-02-22T04:41:31.740Z,4.60
2023-02-22T04:43:59.934Z,4.70
2023-02-22T04:46:28.172Z,4.80
2023-02-22T04:48:57.928Z,4.90
2023-02-22T04:51:26.557Z,4.60
2023-02-22T04:53:54.907Z,4.50
2023-02-22T04:56:23.320Z,4.60
2023-02-22T04:58:53.019Z,4.80
2023-02-22T05:01:21.270Z,4.90
2023-02-22T05:03:49.594Z,5.10
2023-02-22T05:06:20.092Z,5.10
2023-02-22T05:08:48.414Z,4.90
2023-02-22T05:11:16.806Z,4.90
2023-02-22T05:13:45.252Z,4.80
2023-02-22T05:16:15.317Z,4.90
2023-02-22T05:18:43.645Z,5.10
2023-02-22T05:21:13.647Z,5.30
2023-02-22T05:23:41.927Z,5.30
2023-02-22T05:26:11.801Z,5.30
2023-02-22T05:28:40.241Z,5.50
2023-02-22T05:31:08.865Z,5.40
2023-02-22T05:33:39.704Z,5.40
2023-02-22T05:36:09.037Z,5.20
2023-02-22T05:38:43.678Z,5.10
2023-02-22T05:41:14.096Z,4.90
2023-02-22T05:43:43.042Z,5.00
2023-02-22T05:46:11.476Z,4.90
2023-02-22T05:48:41.042Z,5.00
2023-02-22T05:51:09.752Z,5.30
2023-02-22T05:53:38.603Z,5.30
2023-02-22T05:56:07.334Z,5.20
2023-02-22T05:58:35.521Z,5.20
2023-02-22T06:01:03.887Z,5.30
2023-02-22T06:03:32.059Z,5.40
2023-02-22T06:06:01.541Z,5.40
2023-02-22T06:08:29.806Z,5.30
2023-02-22T06:10:58.024Z,5.20
2023-02-22T06:13:26.239Z,5.20
2023-02-22T06:15:54.412Z,5.10
2023-02-22T06:18:22.813Z,5.20
2023-02-22T06:20:51.048Z,5.30
2023-02-22T06:23:20.619Z,5.20
2023-02-22T06:25:49.438Z,5.20
2023-02-22T06:28:17.706Z,5.10
2023-02-22T06:30:46.186Z,5.10
2023-02-22T06:33:14.582Z,5.00
2023-02-22T06:35:42.969Z,5.00
2023-02-22T06:38:11.171Z,5.20
2023-02-22T06:40:40.786Z,5.10
2023-02-22T06:43:10.841Z,5.20
2023-02-22T06:45:39.066Z,5.20
2023-02-22T06:48:07.637Z,5.30
2023-02-22T06:50:36.240Z,5.50
2023-02-22T06:53:05.049Z,5.50
2023-02-22T06:55:35.134Z,5.40
2023-02-22T06:58:06.039Z,5.40
2023-02-22T07:00:34.908Z,5.40
2023-02-22T07:03:05.450Z,5.40
2023-02-22T07:05:33.775Z,5.60
2023-02-22T07:08:07.312Z,5.60
2023-02-22T07:10:37.093Z,5.50
2023-02-22T07:13:08.763Z,5.60
2023-02-22T07:15:37.185Z,5.70
2023-02-22T07:18:05.840Z,5.70
2023-02-22T07:20:34.148Z,5.70
2023-02-22T07:23:02.774Z,5.80
2023-02-22T07:25:31.160Z,5.70
2023-02-22T07:27:59.888Z,5.80
2023-02-22T07:30:31.716Z,5.70
2023-02-22T07:33:02.965Z,5.80
2023-02-22T07:35:32.620Z,5.80
2023-02-22T07:38:01.322Z,6.00
2023-02-22T07:40:30.406Z,6.10
2023-02-22T07:43:00.586Z,6.20
2023-02-22T07:45:32.063Z,6.20
2023-02-22T07:48:01.542Z,6.30
2023-02-22T07:50:32.264Z,6.20
2023-02-22T07:53:02.321Z,6.20
2023-02-22T07:55:32.089Z,6.10
2023-02-22T07:58:02.032Z,6.10
2023-02-22T08:00:33.517Z,6.10
2023-02-22T08:03:02.427Z,6.20
2023-02-22T08:05:32.256Z,6.20
2023-02-22T08:08:00.750Z,6.20
2023-02-22T08:10:29.411Z,6.20
2023-02-22T08:12:57.760Z,6.30
2023-02-22T08:15:29.759Z,6.30
2023-02-22T08:18:01.011Z,6.40
2023-02-22T08:20:30.442Z,6.40
2023-02-22T08:22:59.768Z,6.50
2023-02-22T08:25:30.008Z,6.70
2023-02-22T08:28:01.487Z,6.70
2023-02-22T08:30:31.290Z,6.90
2023-02-22T08:33:02.613Z,7.00
2023-02-22T08:35:32.888Z,7.10
2023-02-22T08:38:03.054Z,7.20
2023-02-22T08:40:35.805Z,7.30
2023-02-22T08:43:04.858Z,7.50
2023-02-22T08:45:33.438Z,7.60
2023-02-22T08:48:03.794Z,7.70
2023-02-22T08:50:34.605Z,7.80
2023-02-22T08:53:04.335Z,7.90
2023-02-22T08:55:35.341Z,8.00
2023-02-22T08:58:04.499Z,8.10
2023-02-22T09:00:34.459Z,8.30
2023-02-22T09:03:05.041Z,8.30
2023-02-22T09:05:33.754Z,8.30
2023-02-22T09:08:02.717Z,8.40
2023-02-22T09:10:33.176Z,8.40
2023-02-22T09:13:02.341Z,8.50
2023-02-22T09:15:31.482Z,8.60
2023-02-22T09:17:59.995Z,8.70
2023-02-22T09:20:30.468Z,8.80
2023-02-22T09:23:03.069Z,8.90
2023-02-22T09:25:31.441Z,8.90
2023-02-22T09:27:59.615Z,9.00
2023-02-22T09:30:32.549Z,9.20
2023-02-22T09:33:03.829Z,9.30
2023-02-22T09:35:36.598Z,9.50
2023-02-22T09:38:07.377Z,9.60
2023-02-22T09:40:45.169Z,9.70
2023-02-22T09:43:36.618Z,9.80
2023-02-22T09:46:13.979Z,9.90
2023-02-22T09:48:58.987Z,10.00
2023-02-22T09:51:35.972Z,10.10
2023-02-22T09:54:07.565Z,10.20
2023-02-22T09:56:36.939Z,10.30
2023-02-22T09:59:08.610Z,10.40
2023-02-22T10:01:42.863Z,10.40
2023-02-22T10:04:19.593Z,10.50
2023-02-22T10:07:06.290Z,10.50
2023-02-22T10:09:42.717Z,10.70
2023-02-22T10:12:16.396Z,10.80
2023-02-22T10:14:52.591Z,10.80
2023-02-22T10:17:30.999Z,10.80
2023-02-22T10:20:22.178Z,10.80
2023-02-22T10:23:09.264Z,10.90
2023-02-22T10:25:40.099Z,11.00
2023-02-22T10:28:14.915Z,11.10
2023-02-22T10:30:49.355Z,11.10
2023-02-22T10:33:22.576Z,11.20
2023-02-22T10:35:53.741Z,11.30
2023-02-22T10:38:25.331Z,11.50
2023-02-22T10:40:58.221Z,11.50
2023-02-22T10:43:27.452Z,11.60
2023-02-22T10:45:58.343Z,11.70
2023-02-22T10:48:30.440Z,11.80
2023-02-22T10:51:02.130Z,11.80
2023-02-22T10:53:34.888Z,11.90
2023-02-22T10:56:09.742Z,11.90
2023-02-22T10:58:44.714Z,11.90
2023-02-22T11:01:27.338Z,11.80
2023-02-22T11:04:01.462Z,11.80
2023-02-22T11:06:30.087Z,11.80
2023-02-22T11:09:12.884Z,11.90
2023-02-22T11:11:42.830Z,12.00
2023-02-22T11:14:11.905Z,12.20
2023-02-22T11:16:43.667Z,12.30
2023-02-22T11:19:23.219Z,12.50
2023-02-22T11:21:53.327Z,12.60
2023-02-22T11:24:30.331Z,12.60
2023-02-22T11:27:04.934Z,12.70
2023-02-22T11:29:36.332Z,12.70
2023-02-22T11:32:14.493Z,12.70
2023-02-22T11:34:43.754Z,12.80
2023-02-22T11:37:30.784Z,12.70
2023-02-22T11:40:22.300Z,12.60
2023-02-22T11:43:07.976Z,12.70
2023-02-22T11:45:37.409Z,12.80
2023-02-22T11:48:10.614Z,12.70
2023-02-22T11:50:54.816Z,12.70
2023-02-22T11:53:33.044Z,12.80
2023-02-22T11:56:16.098Z,12.80
2023-02-22T11:58:49.451Z,12.80
2023-02-22T12:01:27.837Z,12.80
2023-02-22T12:04:25.033Z,12.90
2023-02-22T12:07:03.476Z,13.00
2023-02-22T12:09:40.825Z,12.90
2023-02-22T12:12:20.079Z,12.90
2023-02-22T12:14:58.174Z,12.90
2023-02-22T12:17:59.325Z,12.90
2023-02-22T12:20:33.105Z,12.90
2023-02-22T12:23:14.056Z,12.70
2023-02-22T12:25:49.388Z,12.70
2023-02-22T12:28:25.107Z,12.50
2023-02-22T12:31:00.639Z,12.30
2023-02-22T12:33:32.774Z,12.10
2023-02-22T12:36:02.295Z,12.00
2023-02-22T12:38:37.445Z,11.90
2023-02-22T12:41:11.727Z,11.80
2023-02-22T12:43:47.573Z,11.80
2023-02-22T12:46:21.450Z,11.70
2023-02-22T12:48:55.884Z,11.60
2023-02-22T12:51:30.837Z,11.60
2023-02-22T12:54:07.644Z,11.50
2023-02-22T12:56:40.546Z,11.50
2023-02-22T12:59:17.787Z,11.60
2023-02-22T13:01:51.806Z,11.50
2023-02-22T13:04:21.553Z,11.50
2023-02-22T13:07:02.664Z,11.40
2023-02-22T13:09:46.821Z,11.40
2023-02-22T13:12:20.291Z,11.40
2023-02-22T13:15:03.268Z,11.30
2023-02-22T13:17:40.471Z,11.40
2023-02-22T13:20:15.686Z,11.30
2023-02-22T13:22:49.397Z,11.20
2023-02-22T13:25:20.647Z,11.30
2023-02-22T13:27:52.592Z,11.20
2023-02-22T13:30:28.627Z,11.20
2023-02-22T13:33:25.693Z,11.20
2023-02-22T13:36:17.687Z,11.10
2023-02-22T13:39:29.228Z,11.00
2023-02-22T13:42:10.798Z,11.10
2023-02-22T13:45:04.269Z,10.90
2023-02-22T13:48:02.329Z,10.90
2023-02-22T13:50:59.257Z,11.10
2023-02-22T13:53:33.023Z,10.90
2023-02-22T13:56:02.390Z,10.90
2023-02-22T13:58:31.133Z,10.90
2023-02-22T14:01:00.991Z,10.80
2023-02-22T14:03:41.928Z,10.70
2023-02-22T14:06:11.709Z,10.70
2023-02-22T14:08:50.030Z,10.70
2023-02-22T14:11:54.394Z,10.80
2023-02-22T14:14:22.787Z,10.70
2023-02-22T14:17:23.347Z,10.70
2023-02-22T14:20:35.178Z,10.70
2023-02-22T14:23:35.197Z,10.60
2023-02-22T14:26:13.509Z,10.80
2023-02-22T14:28:51.561Z,10.70
2023-02-22T14:31:35.639Z,10.60
2023-02-22T14:34:12.970Z,10.70
2023-02-22T14:36:51.729Z,10.60
2023-02-22T14:39:24.628Z,10.50
2023-02-22T14:42:01.869Z,10.50
2023-02-22T14:44:36.042Z,10.60
2023-02-22T14:47:07.304Z,10.70
2023-02-22T14:49:41.409Z,10.60
2023-02-22T14:52:21.475Z,10.60
2023-02-22T14:55:08.732Z,10.60
2023-02-22T14:57:48.465Z,10.70
2023-02-22T15:00:30.662Z,10.60
2023-02-22T15:03:00.840Z,10.60
2023-02-22T15:05:32.424Z,10.50
2023-02-22T15:08:03.896Z,10.60
2023-02-22T15:10:39.778Z,10.70
2023-02-22T15:13:16.752Z,10.70
2023-02-22T15:15:48.927Z,10.70
2023-02-22T15:18:25.356Z,10.60
2023-02-22T15:20:57.795Z,10.50
2023-02-22T15:23:40.074Z,10.60
2023-02-22T15:26:08.426Z,10.60
2023-02-22T15:28:38.408Z,10.60
2023-02-22T15:31:27.031Z,10.60
2023-02-22T15:33:55.800Z,10.50
2023-02-22T15:36:28.701Z,10.50
2023-02-22T15:38:58.470Z,10.60
2023-02-22T15:41:31.656Z,10.70
2023-02-22T15:44:17.792Z,10.60
2023-02-22T15:46:50.993Z,10.50
2023-02-22T15:49:23.278Z,10.40
2023-02-22T15:52:07.134Z,10.50
2023-02-22T15:54:46.896Z,10.50
2023-02-22T15:57:17.669Z,10.60
2023-02-22T15:59:50.011Z,10.50
2023-02-22T16:02:34.473Z,10.60
2023-02-22T16:05:06.794Z,10.60
2023-02-22T16:07:40.479Z,10.50
2023-02-22T16:10:22.420Z,10.40
2023-02-22T16:12:51.919Z,10.40
2023-02-22T16:15:20.388Z,10.40
2023-02-22T16:18:01.465Z,10.40
2023-02-22T16:20:35.546Z,10.40
2023-02-22T16:23:24.601Z,10.40
2023-02-22T16:26:21.697Z,10.50
2023-02-22T16:28:52.972Z,10.40
2023-02-22T16:31:25.322Z,10.40
2023-02-22T16:33:54.389Z,10.40
2023-02-22T16:36:37.857Z,10.40
2023-02-22T16:39:07.765Z,10.40
2023-02-22T16:41:37.553Z,10.50
2023-02-22T16:44:07.908Z,10.40
2023-02-22T16:46:38.127Z,10.40
2023-02-22T16:49:06.459Z,10.30
2023-02-22T16:51:41.017Z,10.30
2023-02-22T16:54:12.830Z,10.30
2023-02-22T16:56:43.056Z,10.30
2023-02-22T16:59:15.717Z,10.40
2023-02-22T17:01:44.340Z,10.30
2023-02-22T17:04:17.863Z,10.40
2023-02-22T17:06:46.272Z,10.40
2023-02-22T17:09:15.349Z,10.40
2023-02-22T17:11:45.386Z,10.30
2023-02-22T17:14:19.032Z,10.30
2023-02-22T17:16:47.662Z,10.40
2023-02-22T17:19:18.711Z,10.30
2023-02-22T17:21:47.395Z,10.20
2023-02-22T17:24:18.216Z,10.20
2023-02-22T17:26:47.979Z,10.20
2023-02-22T17:29:17.742Z,10.10
2023-02-22T17:31:49.591Z,10.10
2023-02-22T17:34:17.949Z,10.10
2023-02-22T17:36:46.390Z,10.20
2023-02-22T17:39:14.588Z,10.10
2023-02-22T17:41:42.770Z,10.10
2023-02-22T17:44:12.519Z,10.10
2023-02-22T17:46:41.942Z,10.10
2023-02-22T17:49:10.318Z,10.20
2023-02-22T17:51:41.377Z,10.30
2023-02-22T17:54:10.509Z,10.20
2023-02-22T17:56:38.786Z,10.20
2023-02-22T17:59:09.255Z,10.20
2023-02-22T18:01:39.107Z,10.20
2023-02-22T18:04:07.527Z,10.20
2023-02-22T18:06:38.174Z,10.20
2023-02-22T18:09:10.553Z,10.20
2023-02-22T18:11:41.220Z,10.20
2023-02-22T18:14:10.876Z,10.20
2023-02-22T18:16:41.583Z,10.10
2023-02-22T18:19:10.104Z,10.10
2023-02-22T18:21:38.766Z,10.10
2023-02-22T18:24:07.873Z,10.10
2023-02-22T18:26:39.105Z,10.10
2023-02-22T18:29:07.552Z,10.20
2023-02-22T18:31:35.870Z,10.10
2023-02-22T18:34:05.535Z,10.20
2023-02-22T18:36:33.786Z,10.10
2023-02-22T18:39:03.288Z,10.10
2023-02-22T18:41:31.573Z,10.10
2023-02-22T18:44:00.588Z,10.00
2023-02-22T18:46:30.484Z,10.00
2023-02-22T18:48:59.768Z,10.10
2023-02-22T18:51:30.681Z,10.10
2023-02-22T18:54:01.211Z,10.10
2023-02-22T18:56:30.932Z,10.00
2023-02-22T18:59:00.720Z,10.00
2023-02-22T19:01:29.787Z,10.00
2023-02-22T19:03:58.263Z,10.00
2023-02-22T19:06:26.592Z,10.00
2023-02-22T19:08:56.258Z,10.10
2023-02-22T19:11:25.862Z,10.00
2023-02-22T19:13:57.096Z,9.90
2023-02-22T19:16:27.422Z,9.80
2023-02-22T19:18:58.029Z,9.90
2023-02-22T19:21:27.478Z,10.00
2023-02-22T19:23:57.647Z,9.90
2023-02-22T19:26:27.554Z,9.80
2023-02-22T19:28:57.634Z,9.80
2023-02-22T19:31:30.358Z,9.80
2023-02-22T19:34:01.889Z,9.90
2023-02-22T19:36:30.290Z,9.90
2023-02-22T19:39:02.069Z,9.90
2023-02-22T19:41:31.723Z,10.00
2023-02-22T19:43:59.982Z,10.00
2023-02-22T19:46:28.554Z,10.00
2023-02-22T19:48:57.337Z,9.90
2023-02-22T19:51:28.006Z,9.90
2023-02-22T19:54:00.496Z,9.90
2023-02-22T19:56:30.884Z,10.00
2023-02-22T19:59:00.863Z,9.90
2023-02-22T20:01:33.130Z,9.80
2023-02-22T20:04:04.147Z,9.80
2023-02-22T20:06:35.782Z,9.80
2023-02-22T20:09:06.777Z,9.80
2023-02-22T20:11:35.487Z,9.90
2023-02-22T20:14:06.713Z,9.90
2023-02-22T20:16:36.055Z,9.90
2023-02-22T20:19:04.586Z,9.80
2023-02-22T20:21:36.670Z,9.80
2023-02-22T20:24:08.578Z,9.80
2023-02-22T20:26:38.602Z,9.80
2023-02-22T20:29:09.154Z,9.80
2023-02-22T20:31:38.214Z,9.80
2023-02-22T20:34:07.452Z,9.80
2023-02-22T20:36:37.161Z,9.70
2023-02-22T20:39:13.290Z,9.80
2023-02-22T20:41:43.612Z,9.70
2023-02-22T20:44:14.005Z,9.80
2023-02-22T20:46:42.916Z,9.80
2023-02-22T20:49:13.771Z,9.70
2023-02-22T20:51:42.263Z,9.80
2023-02-22T20:54:12.497Z,9.80
2023-02-22T20:56:42.696Z,9.80
2023-02-22T20:59:13.082Z,9.80
2023-02-22T21:01:42.477Z,9.70
2023-02-22T21:04:11.358Z,9.70
2023-02-22T21:06:40.405Z,9.80
2023-02-22T21:09:14.800Z,9.70
2023-02-22T21:11:43.744Z,9.80
2023-02-22T21:14:16.857Z,9.80
2023-02-22T21:16:46.473Z,9.80
2023-02-22T21:19:27.964Z,9.80
2023-02-22T21:21:57.962Z,9.80
2023-02-22T21:24:29.112Z,9.90
2023-02-22T21:26:59.198Z,9.80
2023-02-22T21:29:28.176Z,9.80
2023-02-22T21:31:56.989Z,9.80
2023-02-22T21:34:25.977Z,9.80
2023-02-22T21:36:54.548Z,9.80
2023-02-22T21:39:28.661Z,9.80
2023-02-22T21:42:02.150Z,9.90
2023-02-22T21:44:30.806Z,9.90
2023-02-22T21:46:59.137Z,9.90
2023-02-22T21:49:28.340Z,9.90
2023-02-22T21:51:56.670Z,9.90
2023-02-22T21:54:25.042Z,9.90
2023-02-22T21:56:54.532Z,9.90
2023-02-22T21:59:26.750Z,9.90
2023-02-22T22:01:56.690Z,9.90
2023-02-22T22:04:27.688Z,9.90
2023-02-22T22:06:57.796Z,9.80
2023-02-22T22:09:29.142Z,9.80
2023-02-22T22:11:59.244Z,9.80
2023-02-22T22:14:29.230Z,9.80
2023-02-22T22:16:59.444Z,9.80
2023-02-22T22:19:29.330Z,9.70
2023-02-22T22:21:58.001Z,9.60
2023-02-22T22:24:28.828Z,9.60
2023-02-22T22:27:02.303Z,9.60
2023-02-22T22:29:34.375Z,9.60
2023-02-22T22:32:03.426Z,9.60
2023-02-22T22:34:34.084Z,9.60
2023-02-22T22:37:03.029Z,9.60
2023-02-22T22:39:31.685Z,9.60
2023-02-22T22:42:00.020Z,9.60
2023-02-22T22:44:32.937Z,9.60
2023-02-22T22:47:05.512Z,9.70
2023-02-22T22:49:40.399Z,9.70
2023-02-22T22:52:09.133Z,9.60
2023-02-22T22:54:38.339Z,9.70
2023-02-22T22:57:06.616Z,9.70
2023-02-22T22:59:36.330Z,9.70
2023-02-22T23:02:10.863Z,9.70
2023-02-22T23:04:39.161Z,9.60
2023-02-22T23:07:07.658Z,9.60
2023-02-22T23:09:38.980Z,9.60
2023-02-22T23:12:09.842Z,9.60
2023-02-22T23:14:40.226Z,9.60
2023-02-22T23:17:15.318Z,9.60
2023-02-22T23:19:45.270Z,9.60
2023-02-22T23:22:14.447Z,9.60
2023-02-22T23:24:44.548Z,9.70
2023-02-22T23:27:12.890Z,9.70
2023-02-22T23:29:42.949Z,9.60
2023-02-22T23:32:14.442Z,9.60
2023-02-22T23:34:42.846Z,9.60
2023-02-22T23:37:14.032Z,9.60
2023-02-22T23:39:42.473Z,9.60
2023-02-22T23:42:10.884Z,9.60
2023-02-22T23:44:40.233Z,9.60
2023-02-22T23:47:09.842Z,9.70
2023-02-22T23:49:43.397Z,9.70
2023-02-22T23:52:16.128Z,9.70
2023-02-22T23:54:46.849Z,9.60
2023-02-22T23:57:17.656Z,9.60
2023-02-22T23:59:46.142Z,9.60
